Terminal Aerodrome Forecast
Issued by NWS Portland, ME

Home | Current Version | Previous Version | Text Only | Print | Product List | Glossary On
Versions: 1 2 3 4 5 6 7 8 9 10 11 12 13 14 15 16 17 18
664
FTUS41 KGYX 231729
TAFPWM
TAF
KPWM 231729Z 2318/2418 31013G23KT P6SM SKC
     FM240000 VRB03KT P6SM SKC
     FM240900 VRB03KT P6SM SCT120 BKN200
     FM241500 20009KT P6SM SCT060 BKN080 OVC120=

USA.gov is the U.S. government's official web portal to all federal, state and local government web resources and services.